Liberty, Iowa
Current Conditions -  °F | °C
As of 7:35 AM on Friday 19 Dec 2014 (Local Time) from KI75 Reporting Station
Overcast Overcast  
Wind Chill: 29°   Ceiling: 4100
Heat Index: 29°   Visibility: 7mi
Dew Point: 28°   Wind: 0mph
Humidity: 95%   Direction: NA
Pressure: 30.24"   Gusts: NA
Location:  41.1554°N, 93.6829°W
Report Text: KI75 191335Z AUTO 00000KT 7SM OVC041 M01/M02 A3024 RMK AO2 T10151022
Loading
Personal Weather Stations






























Interactive Weather Map New forecast layout! Learn more

10-Day Weather Forecast

Advertisements
Track Severe Weather on mobile